sensor_id;sensor_type;location;lat;lon;timestamp;pressure;altitude;pressure_sealevel;temperature;humidity
11114;BME280;5610;52.154;9.198;2023-09-18T00:01:05;100078.56;;;20.09;100.00
11114;BME280;5610;52.154;9.198;2023-09-18T00:03:51;100078.03;;;20.06;100.00
11114;BME280;5610;52.154;9.198;2023-09-18T00:06:36;100068.22;;;20.05;100.00
11114;BME280;5610;52.154;9.198;2023-09-18T00:09:21;100064.50;;;19.97;100.00
11114;BME280;5610;52.154;9.198;2023-09-18T00:12:06;100068.56;;;19.93;100.00
11114;BME280;5610;52.154;9.198;2023-09-18T00:14:55;100054.72;;;19.88;100.00
11114;BME280;5610;52.154;9.198;2023-09-18T00:17:40;100052.50;;;19.84;100.00
11114;BME280;5610;52.154;9.198;2023-09-18T00:20:25;100049.28;;;19.80;100.00
11114;BME280;5610;52.154;9.198;2023-09-18T00:23:11;100049.63;;;19.77;100.00
11114;BME280;5610;52.154;9.198;2023-09-18T00:25:56;100048.13;;;19.74;100.00
11114;BME280;5610;52.154;9.198;2023-09-18T00:28:41;100033.59;;;19.75;100.00
11114;BME280;5610;52.154;9.198;2023-09-18T00:31:28;100039.47;;;19.71;100.00
11114;BME280;5610;52.154;9.198;2023-09-18T00:34:14;100029.88;;;19.68;100.00
11114;BME280;5610;52.154;9.198;2023-09-18T00:36:59;100026.31;;;19.60;100.00
11114;BME280;5610;52.154;9.198;2023-09-18T00:39:44;100018.88;;;19.62;100.00
11114;BME280;5610;52.154;9.198;2023-09-18T00:42:30;100013.78;;;19.59;100.00
11114;BME280;5610;52.154;9.198;2023-09-18T00:45:16;100021.38;;;19.55;100.00
11114;BME280;5610;52.154;9.198;2023-09-18T00:48:03;100015.44;;;19.52;100.00
11114;BME280;5610;52.154;9.198;2023-09-18T00:50:48;100014.47;;;19.53;100.00
11114;BME280;5610;52.154;9.198;2023-09-18T00:53:34;99998.75;;;19.48;100.00
11114;BME280;5610;52.154;9.198;2023-09-18T00:56:19;99996.22;;;19.46;100.00
11114;BME280;5610;52.154;9.198;2023-09-18T00:59:04;99980.16;;;19.45;100.00
11114;BME280;5610;52.154;9.198;2023-09-18T01:01:50;99978.31;;;19.45;100.00
11114;BME280;5610;52.154;9.198;2023-09-18T01:04:38;99974.25;;;19.41;100.00
11114;BME280;5610;52.154;9.198;2023-09-18T01:07:28;99972.56;;;19.40;100.00
11114;BME280;5610;52.154;9.198;2023-09-18T01:10:13;99972.03;;;19.37;100.00
11114;BME280;5610;52.154;9.198;2023-09-18T01:13:04;99957.50;;;19.38;100.00
11114;BME280;5610;52.154;9.198;2023-09-18T01:15:54;99960.72;;;19.33;100.00
11114;BME280;5610;52.154;9.198;2023-09-18T01:18:48;99951.25;;;19.29;100.00
11114;BME280;5610;52.154;9.198;2023-09-18T01:21:35;99953.97;;;19.29;100.00
11114;BME280;5610;52.154;9.198;2023-09-18T01:24:21;99954.13;;;19.28;100.00
11114;BME280;5610;52.154;9.198;2023-09-18T01:27:09;99951.09;;;19.23;100.00
11114;BME280;5610;52.154;9.198;2023-09-18T01:29:54;99945.84;;;19.21;100.00
11114;BME280;5610;52.154;9.198;2023-09-18T01:32:40;99948.56;;;19.21;100.00
11114;BME280;5610;52.154;9.198;2023-09-18T01:35:29;99943.31;;;19.11;100.00
11114;BME280;5610;52.154;9.198;2023-09-18T01:38:14;99941.94;;;19.07;100.00
11114;BME280;5610;52.154;9.198;2023-09-18T01:41:01;99938.41;;;19.07;100.00
11114;BME280;5610;52.154;9.198;2023-09-18T01:43:47;99937.94;;;19.11;100.00
11114;BME280;5610;52.154;9.198;2023-09-18T01:46:33;99928.13;;;19.10;100.00
11114;BME280;5610;52.154;9.198;2023-09-18T01:49:26;99924.06;;;19.06;100.00
11114;BME280;5610;52.154;9.198;2023-09-18T01:52:12;99917.47;;;19.09;100.00
11114;BME280;5610;52.154;9.198;2023-09-18T01:54:57;99921.53;;;19.05;100.00
11114;BME280;5610;52.154;9.198;2023-09-18T01:57:44;99910.03;;;19.03;100.00
11114;BME280;5610;52.154;9.198;2023-09-18T02:00:29;99896.41;;;18.96;100.00
11114;BME280;5610;52.154;9.198;2023-09-18T02:03:15;99894.19;;;18.91;100.00
11114;BME280;5610;52.154;9.198;2023-09-18T02:06:01;99895.38;;;18.89;100.00
11114;BME280;5610;52.154;9.198;2023-09-18T02:08:47;99892.16;;;18.85;100.00
11114;BME280;5610;52.154;9.198;2023-09-18T02:11:32;99888.78;;;18.83;100.00
11114;BME280;5610;52.154;9.198;2023-09-18T02:14:18;99875.44;;;18.82;100.00
11114;BME280;5610;52.154;9.198;2023-09-18T02:17:04;99875.94;;;18.77;100.00
11114;BME280;5610;52.154;9.198;2023-09-18T02:19:49;99879.66;;;18.76;100.00
11114;BME280;5610;52.154;9.198;2023-09-18T02:22:34;99877.78;;;18.69;100.00
11114;BME280;5610;52.154;9.198;2023-09-18T02:25:19;99871.38;;;18.70;100.00
11114;BME280;5610;52.154;9.198;2023-09-18T02:28:05;99867.66;;;18.71;100.00
11114;BME280;5610;52.154;9.198;2023-09-18T02:30:51;99872.22;;;18.70;100.00
11114;BME280;5610;52.154;9.198;2023-09-18T02:33:38;99871.03;;;18.73;100.00
11114;BME280;5610;52.154;9.198;2023-09-18T02:36:23;99875.09;;;18.69;100.00
11114;BME280;5610;52.154;9.198;2023-09-18T02:39:08;99857.34;;;18.66;100.00
11114;BME280;5610;52.154;9.198;2023-09-18T02:41:53;99860.19;;;18.64;100.00
11114;BME280;5610;52.154;9.198;2023-09-18T02:44:39;99861.38;;;18.62;100.00
11114;BME280;5610;52.154;9.198;2023-09-18T02:47:25;99859.84;;;18.59;100.00
11114;BME280;5610;52.154;9.198;2023-09-18T02:50:10;99849.56;;;18.55;100.00
11114;BME280;5610;52.154;9.198;2023-09-18T02:52:55;99857.31;;;18.58;100.00
11114;BME280;5610;52.154;9.198;2023-09-18T02:55:40;99856.28;;;18.59;100.00
11114;BME280;5610;52.154;9.198;2023-09-18T02:58:26;99853.31;;;18.70;100.00
11114;BME280;5610;52.154;9.198;2023-09-18T03:01:13;99848.09;;;18.77;100.00
11114;BME280;5610;52.154;9.198;2023-09-18T03:04:00;99847.28;;;18.84;100.00
11114;BME280;5610;52.154;9.198;2023-09-18T03:06:45;99851.81;;;18.84;100.00
11114;BME280;5610;52.154;9.198;2023-09-18T03:09:30;99841.22;;;18.90;100.00
11114;BME280;5610;52.154;9.198;2023-09-18T03:12:15;99842.38;;;18.88;100.00
11114;BME280;5610;52.154;9.198;2023-09-18T03:15:01;99835.97;;;18.89;100.00
11114;BME280;5610;52.154;9.198;2023-09-18T03:17:50;99830.91;;;18.86;100.00
11114;BME280;5610;52.154;9.198;2023-09-18T03:20:36;99821.47;;;18.82;100.00
11114;BME280;5610;52.154;9.198;2023-09-18T03:23:22;99809.97;;;18.88;100.00
11114;BME280;5610;52.154;9.198;2023-09-18T03:26:08;99812.19;;;18.92;100.00
11114;BME280;5610;52.154;9.198;2023-09-18T03:28:53;99803.72;;;18.96;100.00
11114;BME280;5610;52.154;9.198;2023-09-18T03:31:38;99792.13;;;19.03;100.00
11114;BME280;5610;52.154;9.198;2023-09-18T03:34:24;99796.50;;;19.12;100.00
11114;BME280;5610;52.154;9.198;2023-09-18T03:37:11;99790.91;;;19.14;100.00
11114;BME280;5610;52.154;9.198;2023-09-18T03:39:56;99786.69;;;19.19;100.00
11114;BME280;5610;52.154;9.198;2023-09-18T03:42:41;99778.56;;;19.28;100.00
11114;BME280;5610;52.154;9.198;2023-09-18T03:45:27;99778.22;;;19.39;100.00
11114;BME280;5610;52.154;9.198;2023-09-18T03:48:12;99770.78;;;19.41;100.00
11114;BME280;5610;52.154;9.198;2023-09-18T03:50:58;99762.66;;;19.49;100.00
11114;BME280;5610;52.154;9.198;2023-09-18T03:53:44;99751.38;;;19.45;100.00
11114;BME280;5610;52.154;9.198;2023-09-18T03:56:30;99753.53;;;19.50;100.00
11114;BME280;5610;52.154;9.198;2023-09-18T03:59:15;99743.22;;;19.54;100.00
11114;BME280;5610;52.154;9.198;2023-09-18T04:02:00;99730.38;;;19.56;100.00
11114;BME280;5610;52.154;9.198;2023-09-18T04:04:46;99725.66;;;19.49;100.00
11114;BME280;5610;52.154;9.198;2023-09-18T04:07:31;99728.19;;;19.51;100.00
11114;BME280;5610;52.154;9.198;2023-09-18T04:10:19;99715.22;;;19.46;100.00
11114;BME280;5610;52.154;9.198;2023-09-18T04:13:06;99715.38;;;19.45;100.00
11114;BME280;5610;52.154;9.198;2023-09-18T04:15:52;99708.44;;;19.51;100.00
11114;BME280;5610;52.154;9.198;2023-09-18T04:18:41;99703.03;;;19.51;100.00
11114;BME280;5610;52.154;9.198;2023-09-18T04:21:27;99693.06;;;19.51;100.00
11114;BME280;5610;52.154;9.198;2023-09-18T04:24:13;99677.53;;;19.53;100.00
11114;BME280;5610;52.154;9.198;2023-09-18T04:26:59;99673.84;;;19.46;100.00
11114;BME280;5610;52.154;9.198;2023-09-18T04:29:44;99660.34;;;19.46;100.00
11114;BME280;5610;52.154;9.198;2023-09-18T04:32:29;99645.19;;;19.37;100.00
11114;BME280;5610;52.154;9.198;2023-09-18T04:35:15;99649.38;;;19.47;100.00
11114;BME280;5610;52.154;9.198;2023-09-18T04:38:00;99640.59;;;19.45;100.00
11114;BME280;5610;52.154;9.198;2023-09-18T04:40:46;99633.81;;;19.49;100.00
11114;BME280;5610;52.154;9.198;2023-09-18T04:43:34;99637.53;;;19.48;100.00
11114;BME280;5610;52.154;9.198;2023-09-18T04:46:19;99638.75;;;19.46;100.00
11114;BME280;5610;52.154;9.198;2023-09-18T04:49:05;99641.25;;;19.47;100.00
11114;BME280;5610;52.154;9.198;2023-09-18T04:51:51;99661.34;;;19.53;100.00
11114;BME280;5610;52.154;9.198;2023-09-18T04:54:36;99645.59;;;19.65;100.00
11114;BME280;5610;52.154;9.198;2023-09-18T04:57:21;99625.31;;;19.69;100.00
11114;BME280;5610;52.154;9.198;2023-09-18T05:00:09;99634.97;;;19.63;100.00
11114;BME280;5610;52.154;9.198;2023-09-18T05:02:57;99638.81;;;19.69;100.00
11114;BME280;5610;52.154;9.198;2023-09-18T05:05:45;99630.72;;;19.69;100.00
11114;BME280;5610;52.154;9.198;2023-09-18T05:08:30;99644.09;;;19.62;100.00
11114;BME280;5610;52.154;9.198;2023-09-18T05:11:15;99645.06;;;19.69;100.00
11114;BME280;5610;52.154;9.198;2023-09-18T05:14:00;99645.53;;;19.73;100.00
11114;BME280;5610;52.154;9.198;2023-09-18T05:16:47;99633.03;;;19.72;100.00
11114;BME280;5610;52.154;9.198;2023-09-18T05:19:32;99635.22;;;19.77;100.00
11114;BME280;5610;52.154;9.198;2023-09-18T05:22:17;99642.63;;;19.83;100.00
11114;BME280;5610;52.154;9.198;2023-09-18T05:25:03;99625.00;;;19.87;100.00
11114;BME280;5610;52.154;9.198;2023-09-18T05:27:49;99618.75;;;19.86;100.00
11114;BME280;5610;52.154;9.198;2023-09-18T05:30:39;99596.00;;;19.81;100.00
11114;BME280;5610;52.154;9.198;2023-09-18T05:33:26;99601.88;;;19.84;100.00
11114;BME280;5610;52.154;9.198;2023-09-18T05:36:12;99601.72;;;19.86;100.00
11114;BME280;5610;52.154;9.198;2023-09-18T05:38:58;99600.22;;;19.83;100.00
11114;BME280;5610;52.154;9.198;2023-09-18T05:41:43;99595.97;;;19.89;100.00
11114;BME280;5610;52.154;9.198;2023-09-18T05:44:28;99594.75;;;19.91;100.00
11114;BME280;5610;52.154;9.198;2023-09-18T05:47:13;99583.09;;;19.91;100.00
11114;BME280;5610;52.154;9.198;2023-09-18T05:49:59;99581.22;;;19.91;100.00
11114;BME280;5610;52.154;9.198;2023-09-18T05:52:47;99572.09;;;19.92;100.00
11114;BME280;5610;52.154;9.198;2023-09-18T05:55:33;99569.19;;;19.94;100.00
11114;BME280;5610;52.154;9.198;2023-09-18T05:58:18;99563.56;;;20.03;100.00
11114;BME280;5610;52.154;9.198;2023-09-18T06:01:08;99555.38;;;20.12;100.00
11114;BME280;5610;52.154;9.198;2023-09-18T06:03:53;99556.13;;;20.20;100.00
11114;BME280;5610;52.154;9.198;2023-09-18T06:06:40;99559.34;;;20.24;100.00
11114;BME280;5610;52.154;9.198;2023-09-18T06:09:25;99561.59;;;20.35;100.00
11114;BME280;5610;52.154;9.198;2023-09-18T06:12:10;99558.97;;;20.42;100.00
11114;BME280;5610;52.154;9.198;2023-09-18T06:14:56;99549.81;;;20.51;100.00
11114;BME280;5610;52.154;9.198;2023-09-18T06:17:42;99537.03;;;20.60;100.00
11114;BME280;5610;52.154;9.198;2023-09-18T06:20:28;99545.34;;;20.73;100.00
11114;BME280;5610;52.154;9.198;2023-09-18T06:23:15;99545.88;;;20.83;100.00
11114;BME280;5610;52.154;9.198;2023-09-18T06:26:00;99533.91;;;20.92;100.00
11114;BME280;5610;52.154;9.198;2023-09-18T06:28:45;99530.28;;;21.00;100.00
11114;BME280;5610;52.154;9.198;2023-09-18T06:31:30;99535.13;;;21.04;100.00
11114;BME280;5610;52.154;9.198;2023-09-18T06:34:16;99543.72;;;21.08;100.00
11114;BME280;5610;52.154;9.198;2023-09-18T06:37:01;99548.31;;;21.07;100.00
11114;BME280;5610;52.154;9.198;2023-09-18T06:39:49;99555.13;;;21.03;100.00
11114;BME280;5610;52.154;9.198;2023-09-18T06:42:34;99552.00;;;21.21;100.00
11114;BME280;5610;52.154;9.198;2023-09-18T06:45:19;99555.56;;;21.36;100.00
11114;BME280;5610;52.154;9.198;2023-09-18T06:48:05;99555.91;;;21.48;100.00
11114;BME280;5610;52.154;9.198;2023-09-18T06:50:50;99555.78;;;21.56;100.00
11114;BME280;5610;52.154;9.198;2023-09-18T06:53:35;99538.75;;;21.62;100.00
11114;BME280;5610;52.154;9.198;2023-09-18T06:56:22;99546.59;;;21.72;100.00
11114;BME280;5610;52.154;9.198;2023-09-18T06:59:07;99560.00;;;21.80;100.00
11114;BME280;5610;52.154;9.198;2023-09-18T07:01:52;99585.19;;;21.96;100.00
11114;BME280;5610;52.154;9.198;2023-09-18T07:04:37;99589.28;;;22.06;100.00
11114;BME280;5610;52.154;9.198;2023-09-18T07:07:28;99577.53;;;22.20;100.00
11114;BME280;5610;52.154;9.198;2023-09-18T07:10:14;99596.25;;;22.37;100.00
11114;BME280;5610;52.154;9.198;2023-09-18T07:13:01;99584.19;;;22.46;100.00
11114;BME280;5610;52.154;9.198;2023-09-18T07:15:46;99574.78;;;22.70;100.00
11114;BME280;5610;52.154;9.198;2023-09-18T07:18:32;99578.81;;;22.81;100.00
11114;BME280;5610;52.154;9.198;2023-09-18T07:21:17;99564.06;;;22.90;100.00
11114;BME280;5610;52.154;9.198;2023-09-18T07:24:03;99575.69;;;23.12;100.00
11114;BME280;5610;52.154;9.198;2023-09-18T07:26:48;99578.06;;;23.28;100.00
11114;BME280;5610;52.154;9.198;2023-09-18T07:29:35;99589.34;;;23.32;100.00
11114;BME280;5610;52.154;9.198;2023-09-18T07:32:20;99577.03;;;23.36;100.00
11114;BME280;5610;52.154;9.198;2023-09-18T07:35:07;99586.91;;;23.43;100.00
11114;BME280;5610;52.154;9.198;2023-09-18T07:37:52;99577.31;;;23.47;100.00
11114;BME280;5610;52.154;9.198;2023-09-18T07:40:38;99585.03;;;23.50;100.00
11114;BME280;5610;52.154;9.198;2023-09-18T07:43:24;99588.25;;;23.67;100.00
11114;BME280;5610;52.154;9.198;2023-09-18T07:46:10;99595.84;;;23.92;100.00
11114;BME280;5610;52.154;9.198;2023-09-18T07:48:55;99607.81;;;24.10;100.00
11114;BME280;5610;52.154;9.198;2023-09-18T07:51:40;99617.88;;;24.23;100.00
11114;BME280;5610;52.154;9.198;2023-09-18T07:54:25;99611.38;;;24.04;100.00
11114;BME280;5610;52.154;9.198;2023-09-18T07:57:11;99622.88;;;24.00;100.00
11114;BME280;5610;52.154;9.198;2023-09-18T07:59:57;99610.34;;;24.25;100.00
11114;BME280;5610;52.154;9.198;2023-09-18T08:02:44;99612.91;;;24.40;100.00
11114;BME280;5610;52.154;9.198;2023-09-18T08:05:32;99611.41;;;24.44;100.00
11114;BME280;5610;52.154;9.198;2023-09-18T08:08:18;99630.69;;;24.62;100.00
11114;BME280;5610;52.154;9.198;2023-09-18T08:11:08;99622.53;;;24.36;100.00
11114;BME280;5610;52.154;9.198;2023-09-18T08:13:53;99615.63;;;24.47;100.00
11114;BME280;5610;52.154;9.198;2023-09-18T08:16:38;99612.69;;;24.35;100.00
11114;BME280;5610;52.154;9.198;2023-09-18T08:19:25;99611.19;;;24.19;100.00
11114;BME280;5610;52.154;9.198;2023-09-18T08:22:11;99613.28;;;24.10;100.00
11114;BME280;5610;52.154;9.198;2023-09-18T08:24:59;99614.53;;;24.21;100.00
11114;BME280;5610;52.154;9.198;2023-09-18T08:27:44;99603.41;;;24.23;100.00
11114;BME280;5610;52.154;9.198;2023-09-18T08:30:29;99604.72;;;24.33;100.00
11114;BME280;5610;52.154;9.198;2023-09-18T08:33:14;99596.56;;;24.40;100.00
11114;BME280;5610;52.154;9.198;2023-09-18T08:36:01;99599.91;;;24.35;100.00
11114;BME280;5610;52.154;9.198;2023-09-18T08:38:46;99601.78;;;24.61;100.00
11114;BME280;5610;52.154;9.198;2023-09-18T08:41:32;99592.34;;;24.64;100.00
11114;BME280;5610;52.154;9.198;2023-09-18T08:44:18;99596.56;;;24.47;100.00
11114;BME280;5610;52.154;9.198;2023-09-18T08:47:05;99606.63;;;24.40;100.00
11114;BME280;5610;52.154;9.198;2023-09-18T08:49:51;99618.34;;;24.47;100.00
11114;BME280;5610;52.154;9.198;2023-09-18T08:52:40;99602.84;;;24.41;100.00
11114;BME280;5610;52.154;9.198;2023-09-18T08:55:27;99601.59;;;24.43;100.00
11114;BME280;5610;52.154;9.198;2023-09-18T08:58:13;99603.06;;;24.39;100.00
11114;BME280;5610;52.154;9.198;2023-09-18T09:00:59;99607.25;;;24.35;100.00
11114;BME280;5610;52.154;9.198;2023-09-18T09:03:45;99609.69;;;24.23;100.00
11114;BME280;5610;52.154;9.198;2023-09-18T09:06:30;99627.97;;;24.36;100.00
11114;BME280;5610;52.154;9.198;2023-09-18T09:09:17;99626.31;;;24.42;100.00
11114;BME280;5610;52.154;9.198;2023-09-18T09:12:03;99620.41;;;24.25;100.00
11114;BME280;5610;52.154;9.198;2023-09-18T09:15:02;99626.31;;;24.42;100.00
11114;BME280;5610;52.154;9.198;2023-09-18T09:17:47;99638.44;;;24.32;100.00
11114;BME280;5610;52.154;9.198;2023-09-18T09:20:32;99637.13;;;24.22;100.00
11114;BME280;5610;52.154;9.198;2023-09-18T09:23:19;99644.66;;;24.13;100.00
11114;BME280;5610;52.154;9.198;2023-09-18T09:26:14;99643.34;;;23.96;100.00
11114;BME280;5610;52.154;9.198;2023-09-18T09:29:14;99646.09;;;24.02;100.00
11114;BME280;5610;52.154;9.198;2023-09-18T09:32:16;99635.19;;;23.96;100.00
11114;BME280;5610;52.154;9.198;2023-09-18T09:35:01;99638.75;;;23.90;100.00
11114;BME280;5610;52.154;9.198;2023-09-18T09:37:50;99643.97;;;23.84;100.00
11114;BME280;5610;52.154;9.198;2023-09-18T09:40:38;99634.78;;;23.92;100.00
11114;BME280;5610;52.154;9.198;2023-09-18T09:43:26;99635.63;;;23.99;100.00
11114;BME280;5610;52.154;9.198;2023-09-18T09:46:15;99637.47;;;23.86;100.00
11114;BME280;5610;52.154;9.198;2023-09-18T09:49:03;99632.03;;;23.86;100.00
11114;BME280;5610;52.154;9.198;2023-09-18T09:51:48;99635.44;;;24.01;100.00
11114;BME280;5610;52.154;9.198;2023-09-18T09:54:33;99641.06;;;23.93;100.00
11114;BME280;5610;52.154;9.198;2023-09-18T09:57:24;99646.06;;;23.89;100.00
11114;BME280;5610;52.154;9.198;2023-09-18T10:00:12;99634.78;;;23.92;100.00
11114;BME280;5610;52.154;9.198;2023-09-18T10:03:11;99625.84;;;24.25;100.00
11114;BME280;5610;52.154;9.198;2023-09-18T10:05:58;99630.09;;;24.47;100.00
11114;BME280;5610;52.154;9.198;2023-09-18T10:08:44;99637.59;;;24.65;100.00
11114;BME280;5610;52.154;9.198;2023-09-18T10:11:30;99642.84;;;24.73;100.00
11114;BME280;5610;52.154;9.198;2023-09-18T10:14:18;99650.59;;;24.83;100.00
11114;BME280;5610;52.154;9.198;2023-09-18T10:17:11;99652.88;;;24.99;100.00
11114;BME280;5610;52.154;9.198;2023-09-18T10:20:02;99635.50;;;25.07;100.00
11114;BME280;5610;52.154;9.198;2023-09-18T10:22:56;99645.03;;;25.42;100.00
11114;BME280;5610;52.154;9.198;2023-09-18T10:25:41;99646.56;;;25.32;100.00
11114;BME280;5610;52.154;9.198;2023-09-18T10:28:27;99640.41;;;25.43;100.00
11114;BME280;5610;52.154;9.198;2023-09-18T10:31:15;99649.91;;;26.55;100.00
11114;BME280;5610;52.154;9.198;2023-09-18T10:34:04;99642.16;;;27.94;96.16
11114;BME280;5610;52.154;9.198;2023-09-18T10:36:52;99628.41;;;29.36;82.26
11114;BME280;5610;52.154;9.198;2023-09-18T10:39:38;99634.16;;;31.32;66.42
11114;BME280;5610;52.154;9.198;2023-09-18T10:42:24;99644.34;;;31.15;63.44
11114;BME280;5610;52.154;9.198;2023-09-18T10:45:11;99643.16;;;29.70;66.43
11114;BME280;5610;52.154;9.198;2023-09-18T10:47:59;99663.75;;;27.83;79.85
11114;BME280;5610;52.154;9.198;2023-09-18T10:50:46;99661.88;;;27.29;89.17
11114;BME280;5610;52.154;9.198;2023-09-18T10:53:31;99661.75;;;26.74;95.92
11114;BME280;5610;52.154;9.198;2023-09-18T10:56:17;99661.16;;;27.88;89.93
11114;BME280;5610;52.154;9.198;2023-09-18T10:59:05;99658.66;;;28.47;82.69
11114;BME280;5610;52.154;9.198;2023-09-18T11:01:51;99667.31;;;29.09;75.36
11114;BME280;5610;52.154;9.198;2023-09-18T11:04:37;99647.66;;;29.12;72.60
11114;BME280;5610;52.154;9.198;2023-09-18T11:07:23;99670.84;;;28.74;76.39
11114;BME280;5610;52.154;9.198;2023-09-18T11:10:25;99672.28;;;30.40;66.71
11114;BME280;5610;52.154;9.198;2023-09-18T11:13:10;99679.31;;;30.35;66.28
11114;BME280;5610;52.154;9.198;2023-09-18T11:16:02;99674.16;;;28.53;75.20
11114;BME280;5610;52.154;9.198;2023-09-18T11:18:50;99673.50;;;26.99;90.16
11114;BME280;5610;52.154;9.198;2023-09-18T11:21:36;99652.38;;;27.31;88.41
11114;BME280;5610;52.154;9.198;2023-09-18T11:24:22;99651.31;;;27.32;91.87
11114;BME280;5610;52.154;9.198;2023-09-18T11:27:07;99650.75;;;26.80;93.63
11114;BME280;5610;52.154;9.198;2023-09-18T11:29:54;99655.44;;;26.17;100.00
11114;BME280;5610;52.154;9.198;2023-09-18T11:32:40;99658.28;;;25.39;100.00
11114;BME280;5610;52.154;9.198;2023-09-18T11:35:26;99675.28;;;25.01;100.00
11114;BME280;5610;52.154;9.198;2023-09-18T11:38:11;99669.44;;;24.64;100.00
11114;BME280;5610;52.154;9.198;2023-09-18T11:40:58;99684.47;;;24.27;100.00
11114;BME280;5610;52.154;9.198;2023-09-18T11:43:45;99687.78;;;24.16;100.00
11114;BME280;5610;52.154;9.198;2023-09-18T11:46:31;99689.88;;;24.14;100.00
11114;BME280;5610;52.154;9.198;2023-09-18T11:49:19;99686.81;;;24.37;100.00
11114;BME280;5610;52.154;9.198;2023-09-18T11:52:05;99678.28;;;24.53;100.00
11114;BME280;5610;52.154;9.198;2023-09-18T11:54:51;99681.63;;;24.69;100.00
11114;BME280;5610;52.154;9.198;2023-09-18T11:57:38;99682.63;;;25.27;100.00
11114;BME280;5610;52.154;9.198;2023-09-18T12:00:26;99677.75;;;25.49;100.00
11114;BME280;5610;52.154;9.198;2023-09-18T12:03:15;99671.38;;;25.82;100.00
11114;BME280;5610;52.154;9.198;2023-09-18T12:06:08;99669.06;;;25.72;100.00
11114;BME280;5610;52.154;9.198;2023-09-18T12:08:56;99684.84;;;25.63;100.00
11114;BME280;5610;52.154;9.198;2023-09-18T12:11:42;99678.94;;;25.80;100.00
11114;BME280;5610;52.154;9.198;2023-09-18T12:14:30;99683.22;;;25.42;100.00
11114;BME280;5610;52.154;9.198;2023-09-18T12:17:15;99683.41;;;25.47;100.00
11114;BME280;5610;52.154;9.198;2023-09-18T12:20:01;99673.81;;;25.38;100.00
11114;BME280;5610;52.154;9.198;2023-09-18T12:22:48;99683.13;;;25.69;100.00
11114;BME280;5610;52.154;9.198;2023-09-18T12:25:34;99698.59;;;25.95;100.00
11114;BME280;5610;52.154;9.198;2023-09-18T12:28:19;99683.81;;;25.51;100.00
11114;BME280;5610;52.154;9.198;2023-09-18T12:31:10;99669.31;;;25.57;100.00
11114;BME280;5610;52.154;9.198;2023-09-18T12:33:55;99682.78;;;25.52;100.00
11114;BME280;5610;52.154;9.198;2023-09-18T12:36:42;99676.78;;;25.30;100.00
11114;BME280;5610;52.154;9.198;2023-09-18T12:39:31;99672.81;;;25.13;100.00
11114;BME280;5610;52.154;9.198;2023-09-18T12:42:17;99669.81;;;25.34;100.00
11114;BME280;5610;52.154;9.198;2023-09-18T12:45:04;99666.28;;;25.27;100.00
11114;BME280;5610;52.154;9.198;2023-09-18T12:47:53;99655.59;;;25.26;100.00
11114;BME280;5610;52.154;9.198;2023-09-18T12:50:39;99657.72;;;24.97;100.00
11114;BME280;5610;52.154;9.198;2023-09-18T12:53:24;99661.72;;;24.81;100.00
11114;BME280;5610;52.154;9.198;2023-09-18T12:56:11;99650.00;;;24.61;100.00
11114;BME280;5610;52.154;9.198;2023-09-18T12:58:57;99656.03;;;24.50;100.00
11114;BME280;5610;52.154;9.198;2023-09-18T13:01:46;99658.34;;;24.66;100.00
11114;BME280;5610;52.154;9.198;2023-09-18T13:04:34;99651.44;;;25.10;100.00
11114;BME280;5610;52.154;9.198;2023-09-18T13:07:22;99631.19;;;25.95;100.00
11114;BME280;5610;52.154;9.198;2023-09-18T13:10:08;99634.69;;;26.41;100.00
11114;BME280;5610;52.154;9.198;2023-09-18T13:12:54;99638.09;;;26.61;100.00
11114;BME280;5610;52.154;9.198;2023-09-18T13:15:40;99649.47;;;26.83;96.50
11114;BME280;5610;52.154;9.198;2023-09-18T13:18:26;99657.06;;;29.16;76.15
11114;BME280;5610;52.154;9.198;2023-09-18T13:21:13;99645.56;;;30.52;66.88
11114;BME280;5610;52.154;9.198;2023-09-18T13:23:58;99647.03;;;34.77;50.51
11114;BME280;5610;52.154;9.198;2023-09-18T13:26:43;99634.84;;;35.03;48.07
11114;BME280;5610;52.154;9.198;2023-09-18T13:29:28;99624.34;;;36.24;45.67
11114;BME280;5610;52.154;9.198;2023-09-18T13:32:14;99619.84;;;35.14;47.02
11114;BME280;5610;52.154;9.198;2023-09-18T13:34:59;99608.53;;;34.24;47.74
11114;BME280;5610;52.154;9.198;2023-09-18T13:37:45;99620.38;;;32.52;50.38
11114;BME280;5610;52.154;9.198;2023-09-18T13:40:31;99618.22;;;34.83;47.05
11114;BME280;5610;52.154;9.198;2023-09-18T13:43:17;99612.41;;;35.00;45.97
11114;BME280;5610;52.154;9.198;2023-09-18T13:46:05;99613.25;;;34.80;46.08
11114;BME280;5610;52.154;9.198;2023-09-18T13:48:50;99615.72;;;32.58;50.65
11114;BME280;5610;52.154;9.198;2023-09-18T13:51:36;99621.13;;;30.55;56.08
11114;BME280;5610;52.154;9.198;2023-09-18T13:54:22;99614.28;;;30.24;59.07
11114;BME280;5610;52.154;9.198;2023-09-18T13:57:07;99602.16;;;29.51;61.50
11114;BME280;5610;52.154;9.198;2023-09-18T13:59:52;99617.59;;;29.17;67.28
11114;BME280;5610;52.154;9.198;2023-09-18T14:02:38;99635.38;;;28.26;70.94
11114;BME280;5610;52.154;9.198;2023-09-18T14:05:23;99631.16;;;27.45;76.08
11114;BME280;5610;52.154;9.198;2023-09-18T14:08:10;99626.38;;;28.61;71.04
11114;BME280;5610;52.154;9.198;2023-09-18T14:10:57;99635.19;;;28.09;72.75
11114;BME280;5610;52.154;9.198;2023-09-18T14:13:42;99627.00;;;28.21;74.73
11114;BME280;5610;52.154;9.198;2023-09-18T14:16:28;99609.13;;;28.72;73.91
11114;BME280;5610;52.154;9.198;2023-09-18T14:19:13;99609.72;;;29.09;70.30
11114;BME280;5610;52.154;9.198;2023-09-18T14:21:58;99611.88;;;28.95;68.08
11114;BME280;5610;52.154;9.198;2023-09-18T14:24:47;99596.81;;;29.33;66.16
11114;BME280;5610;52.154;9.198;2023-09-18T14:27:34;99611.19;;;31.43;57.94
11114;BME280;5610;52.154;9.198;2023-09-18T14:30:19;99605.22;;;34.22;50.87
11114;BME280;5610;52.154;9.198;2023-09-18T14:33:05;99599.09;;;35.82;45.00
11114;BME280;5610;52.154;9.198;2023-09-18T14:35:51;99588.34;;;34.75;46.29
11114;BME280;5610;52.154;9.198;2023-09-18T14:38:36;99585.97;;;33.49;48.10
11114;BME280;5610;52.154;9.198;2023-09-18T14:41:21;99581.88;;;33.72;49.02
11114;BME280;5610;52.154;9.198;2023-09-18T14:44:10;99594.72;;;34.19;47.95